NCAR-RAP Real-Time Weather Data

Output produced by METARs form (08 May 2021  15:34 UTC)
found at http://weather.rap.ucar.edu/surface/
 
KPKB 081453Z 28008KT 10SM BKN023 OVC030 08/03 A3009 RMK AO2 SLP193 T00830028 53021
KPKB 081359Z 30009KT 10SM SCT015 OVC020 07/03 A3007 RMK AO2 T00720033
KPKB 081353Z 29007KT 10SM BKN014 OVC020 07/03 A3007 RMK AO2 SLP183 T00720033
KPKB 081341Z 30007KT 10SM OVC014 07/03 A3006 RMK AO2 T00670033
KPKB 081334Z 30008KT 10SM OVC016 07/03 A3006 RMK AO2 T00670033
KPKB 081253Z 30007KT 10SM BKN012 OVC021 06/03 A3005 RMK AO2 SLP176 T00610033
KPKB 081201Z 29008KT 10SM BKN016 06/03 A3003 RMK AO2 T00560033
KPKB 081153Z 28007KT 10SM SCT014 05/03 A3003 RMK AO2 SLP170 70026 T00500033 10072 20044 53029
KPKB 081053Z 29006KT 10SM CLR 04/03 A3000 RMK AO2 SLP159 T00440033
KPKB 080953Z AUTO 28009G17KT 10SM CLR 06/03 A2997 RMK AO2 SLP149 T00560033
KPKB 080853Z AUTO 29005KT 8SM FEW009 FEW012 07/05 A2994 RMK AO2 SLP139 T00670050 53003
KPKB 080835Z AUTO 27006KT 7SM FEW009 SCT015 07/06 A2993 RMK AO2 T00670056
KPKB 080753Z AUTO 27003KT 6SM BR SCT007 SCT012 BKN018 07/06 A2992 RMK AO2 SLP132 T00720061
KPKB 080746Z AUTO 28004KT 7SM SCT007 OVC016 07/06 A2993 RMK AO2 T00720056
KPKB 080735Z AUTO 27003KT 7SM BKN009 BKN016 OVC020 07/06 A2992 RMK AO2 CIG 005V013 T00720056
KPKB 080726Z AUTO 00000KT 7SM SCT009 BKN015 OVC020 07/06 A2992 RMK AO2 T00670056
KPKB 080653Z AUTO 00000KT 4SM BR BKN012 07/06 A2992 RMK AO2 SLP133 T00670056
KPKB 080624Z AUTO 00000KT 8SM FEW016 SCT023 BKN039 07/06 A2992 RMK AO2 T00720056
KPKB 080553Z AUTO 30004KT 9SM FEW019 OVC027 08/07 A2993 RMK AO2 RAE33 SLP136 P0002 60015 T00780067 10128 20078 56007
KPKB 080502Z AUTO 32003KT 4SM -RA BR OVC029 08/07 A2994 RMK AO2 P0001 T00780067
KPKB 080453Z AUTO 00000KT 5SM -RA BR BKN031 OVC035 08/07 A2993 RMK AO2 RAB0358 SLP138 P0005 T00780067 401610078
KPKB 080353Z AUTO 01003KT 10SM BKN060 OVC075 08/06 A2992 RMK AO2 RAE35 SLP134 P0004 T00830061
KPKB 080253Z 25004KT 10SM -RA OVC041 08/06 A2995 RMK AO2 RAB02 SLP144 P0004 60004 T00830056 53009
KPKB 080153Z 31003KT 10SM FEW060 BKN075 OVC090 11/03 A2993 RMK AO2 RAB04E14B34E44 SLP137 P0000 T01110033
KPKB 080053Z 00000KT 10SM OVC060 11/04 A2992 RMK AO2 SLP134 T01110044
KPKB 072353Z 26003KT 10SM OVC090 13/01 A2993 RMK AO2 SLP134 T01280011 10161 20117 56011
KPKB 072253Z 29004KT 10SM FEW080 14/01 A2993 RMK AO2 SLP136 T01440006
KPKB 072153Z 27011G15KT 10SM FEW070 16/01 A2994 RMK AO2 SLP139 T01560006
KPKB 072053Z 32010G16KT 10SM SCT070 BKN090 14/01 A2996 RMK AO2 SLP144 T01390011 55003
KPKB 071953Z 29010G17KT 10SM FEW060 SCT085 14/01 A2996 RMK AO2 SLP144 T01440011
KPKB 071853Z 28011G20KT 10SM FEW038 SCT046 BKN075 13/03 A2997 RMK AO2 SLP149 T01280033
KPKB 071827Z 25009KT 220V290 10SM FEW030 SCT039 BKN080 13/06 A2996 RMK AO2 T01280061
KPKB 071812Z 26008KT 10SM VCTS SCT030 BKN042 BKN075 13/07 A2996 RMK AO2 T01280067
KPKB 071753Z 30007KT 280V340 10SM FEW044 FEW085 13/07 A2997 RMK AO2 RAE13 SLP149 P0000 60011 T01280072 10128 20078 50006
KPKB 071653Z COR 31010KT 10SM -RA FEW017 BKN041 OVC055 09/07 A2998 RMK AO2 SLP153 P0009 T00940072
KPKB 071645Z 29010G16KT 10SM -RA SCT014 BKN041 OVC055 09/07 A2998 RMK AO2 P0009 T00890067
KPKB 071553Z 33010G15KT 5SM -RA SCT018 BKN024 OVC030 09/06 A2997 RMK AO2 RAB51 SLP148 P0000 T00940061
KPKB 071516Z 30008KT 10SM SCT016 BKN021 OVC036 09/06 A2996 RMK AO2 T00890061
KPKB 071453Z 31009KT 10SM SCT021 BKN037 OVC050 09/06 A2995 RMK AO2 RAE1354 SLP142 P0000 60002 T00940061 53011
KPKB 071353Z 29006KT 10SM -RA SCT010 BKN016 OVC027 09/07 A2992 RMK AO2 RAB03 SLP133 P0001 T00890072
KPKB 071253Z 00000KT 6SM BR BKN017 BKN023 OVC041 09/08 A2992 RMK AO2 RAB10E33 SLP131 P0001 T00890078
KPKB 071248Z 30004KT 7SM SCT017 BKN024 OVC043 09/08 A2992 RMK AO2 RAB10E33 P0001
KPKB 071229Z 00000KT 6SM -RA BR FEW017 BKN035 OVC043 09/07 A2991 RMK AO2 RAB10 P0001 T00890072
KPKB 071153Z 31004KT 5SM BR FEW015 BKN023 OVC031 08/07 A2991 RMK AO2 RAE49 SLP127 P0001 60003 7//// T00830072 10083 20078 51007
KPKB 071149Z 32004KT 6SM BR BKN023 OVC031 08/07 A2991 RMK AO2 RAE49 P0001
KPKB 071053Z 33004KT 5SM -RA BR FEW015 BKN048 08/07 A2989 RMK AO2 RAB0958 SLP121 P0002 T00830067
KPKB 070953Z AUTO 00000KT 10SM OVC048 08/07 A2989 RMK AO2 RAE18 SLP119 P0000 T00830067
KPKB 070853Z AUTO 14003KT 10SM -RA BKN050 OVC060 08/07 A2990 RMK AO2 SLP124 P0000 60000 T00830067 56010
KPKB 070753Z AUTO 33006KT 8SM -RA OVC060 08/06 A2991 RMK AO2 RAB41 SLP127 P0000 T00780061
KPKB 070653Z AUTO 11003KT 10SM OVC075 08/06 A2990 RMK AO2 SLP125 T00780061
KPKB 070553Z AUTO 00000KT 10SM SCT065 OVC120 08/06 A2993 RMK AO2 SLP135 T00780056 10139 20078 58020
KPKB 070453Z AUTO 13003KT 10SM SCT110 08/06 A2995 RMK AO2 SLP142 T00830061 401610011
KPKB 070353Z AUTO 00000KT 10SM OVC110 09/06 A2997 RMK AO2 SLP149 T00940056
KPKB 070253Z 00000KT 10SM SCT110 09/06 A2999 RMK AO2 SLP156 T00940056 56006
KPKB 070153Z 00000KT 10SM OVC110 10/06 A3000 RMK AO2 SLP161 T01000056
KPKB 070053Z 13003KT 10SM BKN110 12/06 A3000 RMK AO2 SLP161 T01170056
KPKB 062353Z 09003KT 10SM FEW120 14/03 A3001 RMK AO2 SLP165 T01390028 10161 20133 58007
KPKB 062253Z 00000KT 10SM FEW060 15/02 A3002 RMK AO2 SLP167 T01500022
KPKB 062153Z 00000KT 10SM OVC055 15/03 A3003 RMK AO2 SLP170 T01500028
KPKB 062053Z COR VRB04KT 10SM BKN050 15/03 A3003 RMK AO2 SLP171 T01500033 56021
KPKB 061953Z 31005KT 10SM BKN050 14/03 A3005 RMK AO2 SLP177 T01390028
KPKB 061853Z 25003KT 10SM SCT047 14/02 A3007 RMK AO2 SLP183 T01390022
KPKB 061753Z 00000KT 10SM SCT045 13/01 A3009 RMK AO2 SLP191 6//// T01330011 10144 20017
KPKB 061653Z 35005KT 10SM SCT045 13/03 A3012 RMK AO2 SLP201 T01330028
KPKB 061614Z 06005KT 10SM SCT043 13/02 A3014 RMK AO2 T01330022
KPKB 061553Z 00000KT 10SM BKN027 13/02 A3015 RMK AO2 SLP208 T01330017